createdAt,value
2018-09-30T00:00:25.920Z,0.00
2018-09-30T00:01:25.941Z,0.00
2018-09-30T00:02:25.846Z,0.00
2018-09-30T00:03:25.795Z,0.00
2018-09-30T00:04:25.785Z,0.00
2018-09-30T00:05:25.736Z,0.00
2018-09-30T00:06:25.678Z,0.00
2018-09-30T00:07:25.633Z,0.00
2018-09-30T00:08:25.561Z,0.00
2018-09-30T00:09:26.501Z,0.00
2018-09-30T00:10:25.513Z,0.00
2018-09-30T00:11:25.450Z,0.00
2018-09-30T00:12:25.413Z,0.00
2018-09-30T00:13:25.339Z,0.00
2018-09-30T00:14:25.339Z,0.00
2018-09-30T00:15:25.245Z,0.00
2018-09-30T00:16:25.214Z,0.00
2018-09-30T00:17:25.193Z,0.00
2018-09-30T00:18:25.122Z,0.00
2018-09-30T00:19:25.085Z,0.00
2018-09-30T00:20:25.023Z,0.00
2018-09-30T00:21:24.985Z,0.00
2018-09-30T00:22:24.944Z,0.00
2018-09-30T00:23:24.898Z,0.00
2018-09-30T00:24:24.855Z,0.00
2018-09-30T00:25:24.810Z,0.00
2018-09-30T00:26:24.760Z,0.00
2018-09-30T00:27:24.709Z,0.00
2018-09-30T00:28:24.684Z,0.00
2018-09-30T00:29:24.651Z,0.00
2018-09-30T00:30:24.599Z,0.00
2018-09-30T00:31:24.548Z,0.00
2018-09-30T00:32:24.491Z,0.00
2018-09-30T00:33:24.464Z,0.00
2018-09-30T00:34:24.400Z,0.00
2018-09-30T00:35:24.352Z,0.00
2018-09-30T00:36:24.437Z,0.00
2018-09-30T00:37:24.274Z,0.00
2018-09-30T00:38:24.232Z,0.00
2018-09-30T00:39:24.200Z,0.00
2018-09-30T00:40:24.131Z,0.00
2018-09-30T00:41:24.096Z,0.00
2018-09-30T00:42:24.053Z,0.00
2018-09-30T00:43:24.078Z,0.00
2018-09-30T00:44:23.965Z,0.00
2018-09-30T00:45:23.937Z,0.00
2018-09-30T00:46:23.933Z,0.00
2018-09-30T00:47:23.843Z,0.00
2018-09-30T00:48:23.781Z,0.00
2018-09-30T00:49:23.751Z,0.00
2018-09-30T00:50:23.715Z,0.00
2018-09-30T00:51:23.687Z,0.00
2018-09-30T00:52:23.620Z,0.00
2018-09-30T00:53:23.556Z,0.00
2018-09-30T00:54:23.542Z,0.00
2018-09-30T00:55:23.487Z,0.00
2018-09-30T00:56:23.403Z,0.00
2018-09-30T00:57:23.378Z,0.00
2018-09-30T00:58:23.351Z,0.00
2018-09-30T00:59:23.297Z,0.00
2018-09-30T01:00:23.251Z,0.00
2018-09-30T01:01:23.185Z,0.00
2018-09-30T01:02:23.162Z,0.00
2018-09-30T01:03:23.107Z,0.00
2018-09-30T01:04:23.068Z,0.00
2018-09-30T01:05:23.030Z,0.00
2018-09-30T01:06:22.978Z,0.00
2018-09-30T01:07:22.950Z,0.00
2018-09-30T01:09:56.405Z,0.00
2018-09-30T01:10:56.239Z,0.00
2018-09-30T01:12:49.157Z,0.00
2018-09-30T01:13:49.118Z,0.00
2018-09-30T01:15:42.689Z,0.00
2018-09-30T01:16:42.578Z,0.00
2018-09-30T01:17:42.683Z,0.00
2018-09-30T01:18:42.613Z,0.00
2018-09-30T01:19:42.456Z,0.00
2018-09-30T01:20:42.439Z,0.00
2018-09-30T01:21:42.379Z,0.00
2018-09-30T01:22:42.319Z,0.00
2018-09-30T01:23:42.320Z,0.00
2018-09-30T01:24:42.277Z,0.00
2018-09-30T01:25:42.184Z,0.00
2018-09-30T01:26:42.123Z,0.00
2018-09-30T01:27:42.112Z,0.00
2018-09-30T01:28:42.055Z,0.00
2018-09-30T01:29:41.979Z,0.00
2018-09-30T01:30:41.947Z,0.00
2018-09-30T01:31:41.920Z,0.00
2018-09-30T01:32:41.851Z,0.00
2018-09-30T01:33:41.843Z,0.00
2018-09-30T01:34:41.757Z,0.00
2018-09-30T01:35:41.735Z,0.00
2018-09-30T01:36:41.676Z,0.00
2018-09-30T01:37:41.640Z,0.00
2018-09-30T01:38:41.599Z,0.00
2018-09-30T01:39:41.567Z,0.00
2018-09-30T01:40:41.523Z,0.00
2018-09-30T01:41:41.454Z,0.00
2018-09-30T01:42:41.396Z,0.00
2018-09-30T01:43:41.398Z,0.00
2018-09-30T01:44:41.310Z,0.00
2018-09-30T01:45:41.301Z,0.00
2018-09-30T01:46:41.221Z,0.00
2018-09-30T01:47:41.189Z,0.00
2018-09-30T01:48:41.157Z,0.00
2018-09-30T01:49:41.110Z,0.00
2018-09-30T01:50:41.114Z,0.00
2018-09-30T01:51:41.053Z,0.00
2018-09-30T01:52:40.961Z,0.00
2018-09-30T01:53:40.944Z,0.00
2018-09-30T01:54:40.959Z,0.00
2018-09-30T01:55:40.816Z,0.00
2018-09-30T01:56:40.786Z,0.00
2018-09-30T01:57:40.744Z,0.00
2018-09-30T01:58:40.700Z,0.00
2018-09-30T01:59:40.654Z,0.00
2018-09-30T02:00:40.630Z,0.00
2018-09-30T02:01:40.544Z,0.00
2018-09-30T02:02:40.541Z,0.00
2018-09-30T02:03:40.467Z,0.00
2018-09-30T02:04:40.420Z,0.00
2018-09-30T02:05:40.367Z,0.00
2018-09-30T02:06:40.331Z,0.00
2018-09-30T02:07:40.284Z,0.00
2018-09-30T02:08:40.289Z,0.00
2018-09-30T02:09:40.203Z,0.00
2018-09-30T02:10:40.161Z,0.00
2018-09-30T02:11:40.112Z,0.00
2018-09-30T02:12:40.062Z,0.00
2018-09-30T02:13:40.013Z,0.00
2018-09-30T02:14:39.949Z,0.00
2018-09-30T02:15:39.920Z,0.00
2018-09-30T02:16:39.867Z,0.00
2018-09-30T02:17:39.831Z,0.00
2018-09-30T02:18:39.772Z,0.00
2018-09-30T02:19:39.741Z,0.00
2018-09-30T02:20:39.699Z,0.00
2018-09-30T02:21:39.672Z,0.00
2018-09-30T02:22:39.599Z,0.00
2018-09-30T02:23:39.583Z,0.00
2018-09-30T02:24:39.506Z,0.00
2018-09-30T02:25:39.492Z,0.00
2018-09-30T02:26:39.412Z,0.00
2018-09-30T02:27:39.373Z,0.00
2018-09-30T02:28:39.350Z,0.00
2018-09-30T02:29:39.310Z,0.00
2018-09-30T02:30:39.271Z,0.00
2018-09-30T02:31:39.241Z,0.00
2018-09-30T02:32:39.169Z,0.00
2018-09-30T02:33:39.118Z,0.00
2018-09-30T02:34:39.061Z,0.00
2018-09-30T02:35:39.051Z,0.00
2018-09-30T02:36:38.999Z,0.00
2018-09-30T02:37:38.929Z,0.00
2018-09-30T02:38:38.889Z,0.00
2018-09-30T02:39:38.834Z,0.00
2018-09-30T02:40:38.808Z,0.00
2018-09-30T02:41:38.731Z,0.00
2018-09-30T02:42:38.708Z,0.00
2018-09-30T02:43:38.679Z,0.00
2018-09-30T02:44:38.666Z,0.00
2018-09-30T02:45:38.565Z,0.00
2018-09-30T02:46:38.515Z,0.00
2018-09-30T02:47:38.497Z,0.00
2018-09-30T02:48:38.445Z,0.00
2018-09-30T02:49:38.381Z,0.00
2018-09-30T02:50:38.333Z,0.00
2018-09-30T02:51:38.286Z,0.00
2018-09-30T02:52:38.247Z,0.00
2018-09-30T02:53:38.198Z,0.00
2018-09-30T02:54:38.181Z,0.00
2018-09-30T02:55:38.106Z,0.00
2018-09-30T02:56:38.084Z,0.00
2018-09-30T02:57:38.040Z,0.00
2018-09-30T02:58:37.970Z,0.00
2018-09-30T02:59:37.931Z,0.00
2018-09-30T03:00:37.888Z,0.00
2018-09-30T03:01:37.836Z,0.00
2018-09-30T03:02:37.811Z,0.00
2018-09-30T03:03:37.741Z,0.00
2018-09-30T03:04:37.718Z,0.00
2018-09-30T03:05:37.660Z,0.00
2018-09-30T03:06:37.613Z,0.00
2018-09-30T03:07:37.556Z,0.00
2018-09-30T03:08:37.533Z,0.00
2018-09-30T03:09:37.470Z,0.00
2018-09-30T03:10:37.423Z,0.00
2018-09-30T03:11:37.385Z,0.00
2018-09-30T03:12:37.372Z,0.00
2018-09-30T03:13:37.295Z,0.00
2018-09-30T03:14:37.250Z,0.00
2018-09-30T03:15:37.222Z,0.00
2018-09-30T03:16:37.174Z,0.00
2018-09-30T03:17:37.157Z,0.00
2018-09-30T03:18:37.068Z,0.00
2018-09-30T03:19:37.043Z,0.00
2018-09-30T03:20:36.974Z,0.00
2018-09-30T03:21:36.972Z,0.00
2018-09-30T03:22:36.902Z,0.00
2018-09-30T03:23:36.878Z,0.00
2018-09-30T03:24:36.794Z,0.00
2018-09-30T03:25:36.751Z,0.00
2018-09-30T03:26:36.705Z,0.00
2018-09-30T03:27:36.686Z,0.00
2018-09-30T03:28:36.623Z,0.00
2018-09-30T03:29:36.576Z,0.00
2018-09-30T03:30:36.539Z,0.00
2018-09-30T03:31:36.482Z,0.00
2018-09-30T03:32:36.468Z,0.00
2018-09-30T03:33:36.405Z,0.00
2018-09-30T03:34:36.355Z,0.00
2018-09-30T03:35:36.297Z,0.00
2018-09-30T03:36:36.244Z,0.00
2018-09-30T03:37:36.188Z,0.00
2018-09-30T03:38:36.151Z,0.00
2018-09-30T03:39:36.221Z,0.00
2018-09-30T03:40:36.062Z,0.00
2018-09-30T03:41:36.021Z,0.00
2018-09-30T03:42:35.981Z,0.00
2018-09-30T03:43:35.929Z,0.00
2018-09-30T03:44:35.885Z,0.00
2018-09-30T03:45:35.831Z,0.00
2018-09-30T03:46:35.791Z,0.00
2018-09-30T03:47:35.751Z,0.00
2018-09-30T03:48:35.720Z,0.00
2018-09-30T03:49:35.652Z,0.00
2018-09-30T03:50:35.617Z,0.00
2018-09-30T03:51:35.572Z,0.00
2018-09-30T03:52:35.529Z,0.00
2018-09-30T03:53:35.487Z,0.00
2018-09-30T03:54:35.426Z,0.00
2018-09-30T03:55:35.420Z,0.00
2018-09-30T03:56:35.337Z,0.00
2018-09-30T03:57:35.296Z,0.00
2018-09-30T03:58:35.244Z,0.00
2018-09-30T03:59:35.190Z,0.00
2018-09-30T04:00:35.159Z,0.00
2018-09-30T04:01:35.128Z,0.00
2018-09-30T04:02:35.069Z,0.00
2018-09-30T04:03:35.025Z,0.00
2018-09-30T04:04:34.970Z,0.00
2018-09-30T04:05:34.947Z,0.00
2018-09-30T04:06:34.899Z,0.00
2018-09-30T04:07:34.871Z,0.00
2018-09-30T04:08:34.797Z,0.00
2018-09-30T04:09:34.818Z,0.00
2018-09-30T04:10:34.715Z,0.00
2018-09-30T04:11:34.661Z,0.00
2018-09-30T04:12:34.613Z,0.00
2018-09-30T04:13:34.577Z,0.00
2018-09-30T04:14:34.548Z,0.00
2018-09-30T04:15:34.500Z,0.00
2018-09-30T04:16:34.433Z,0.00
2018-09-30T04:17:34.475Z,0.00
2018-09-30T04:18:34.333Z,0.00
2018-09-30T04:19:34.302Z,0.00
2018-09-30T04:20:34.257Z,0.00
2018-09-30T04:21:34.213Z,0.00
2018-09-30T04:22:34.178Z,0.00
2018-09-30T04:23:34.119Z,0.00
2018-09-30T04:24:34.079Z,0.00
2018-09-30T04:25:34.036Z,0.00
2018-09-30T04:26:34.007Z,0.00
2018-09-30T04:27:33.944Z,0.00
2018-09-30T04:28:33.871Z,0.00
2018-09-30T04:29:33.845Z,0.00
2018-09-30T04:30:33.785Z,0.00
2018-09-30T04:31:33.780Z,0.00
2018-09-30T04:32:33.720Z,0.00
2018-09-30T04:33:33.678Z,0.00
2018-09-30T04:34:33.611Z,0.00
2018-09-30T04:35:33.616Z,4.00
2018-09-30T04:36:33.532Z,4.00
2018-09-30T04:37:33.477Z,0.00
2018-09-30T04:38:33.425Z,4.00
2018-09-30T04:39:33.414Z,4.00
2018-09-30T04:40:33.357Z,4.00
2018-09-30T04:41:33.289Z,4.00
2018-09-30T04:42:33.290Z,4.00
2018-09-30T04:43:33.197Z,8.00
2018-09-30T04:44:33.154Z,12.00
2018-09-30T04:45:33.131Z,12.00
2018-09-30T04:46:33.085Z,12.00
2018-09-30T04:47:33.047Z,20.00
2018-09-30T04:48:32.997Z,20.00
2018-09-30T04:49:32.931Z,24.00
2018-09-30T04:50:32.917Z,32.00
2018-09-30T04:51:32.852Z,36.00
2018-09-30T04:52:32.850Z,44.00
2018-09-30T04:53:32.775Z,52.00
2018-09-30T04:54:32.717Z,64.00
2018-09-30T04:55:32.656Z,76.00
2018-09-30T04:56:32.636Z,88.00
2018-09-30T04:57:32.575Z,104.00
2018-09-30T04:58:32.526Z,120.00
2018-09-30T04:59:32.510Z,140.00
2018-09-30T05:00:32.446Z,160.00
2018-09-30T05:01:32.384Z,188.00
2018-09-30T05:02:32.351Z,212.00
2018-09-30T05:03:32.308Z,240.00
2018-09-30T05:04:32.259Z,272.00
2018-09-30T05:05:32.200Z,308.00
2018-09-30T05:06:32.164Z,340.00
2018-09-30T05:07:32.112Z,384.00
2018-09-30T05:08:32.083Z,428.00
2018-09-30T05:09:32.043Z,476.00
2018-09-30T05:10:31.981Z,524.00
2018-09-30T05:11:31.923Z,572.00
2018-09-30T05:12:31.913Z,624.00
2018-09-30T05:13:31.857Z,680.00
2018-09-30T05:14:31.814Z,740.00
2018-09-30T05:15:31.754Z,800.00
2018-09-30T05:16:31.744Z,868.00
2018-09-30T05:17:31.667Z,932.00
2018-09-30T05:18:31.634Z,1000.00
2018-09-30T05:19:31.570Z,1072.00
2018-09-30T05:20:31.528Z,1144.00
2018-09-30T05:21:31.460Z,1212.00
2018-09-30T05:22:31.433Z,1280.00
2018-09-30T05:23:31.391Z,1348.00
2018-09-30T05:24:31.347Z,1420.00
2018-09-30T05:25:31.306Z,1492.00
2018-09-30T05:26:31.284Z,1564.00
2018-09-30T05:27:31.212Z,1632.00
2018-09-30T05:28:31.172Z,1700.00
2018-09-30T05:29:31.128Z,1776.00
2018-09-30T05:30:31.062Z,1848.00
2018-09-30T05:31:31.037Z,1916.00
2018-09-30T05:32:30.989Z,1988.00
2018-09-30T05:33:30.921Z,2060.00
2018-09-30T05:34:30.870Z,2132.00
2018-09-30T05:35:30.855Z,2208.00
2018-09-30T05:36:30.822Z,2276.00
2018-09-30T05:37:30.747Z,2348.00
2018-09-30T05:38:30.689Z,2416.00
2018-09-30T05:39:30.657Z,2484.00
2018-09-30T05:40:30.610Z,2544.00
2018-09-30T05:41:30.596Z,2616.00
2018-09-30T05:42:30.557Z,2680.00
2018-09-30T05:43:30.462Z,2744.00
2018-09-30T05:44:30.412Z,2816.00
2018-09-30T05:45:30.373Z,2868.00
2018-09-30T05:46:30.337Z,2940.00
2018-09-30T05:47:30.292Z,2984.00
2018-09-30T05:48:30.259Z,3056.00
2018-09-30T05:49:30.203Z,3108.00
2018-09-30T05:50:30.175Z,3172.00
2018-09-30T05:51:30.126Z,3224.00
2018-09-30T05:52:30.072Z,3276.00
2018-09-30T05:53:30.062Z,3324.00
2018-09-30T05:54:30.081Z,3372.00
2018-09-30T05:55:30.141Z,3420.00
2018-09-30T05:56:29.995Z,3468.00
2018-09-30T05:57:29.929Z,3532.00
2018-09-30T05:58:29.802Z,3600.00
2018-09-30T05:59:29.737Z,3644.00
2018-09-30T06:00:29.716Z,3696.00
2018-09-30T06:01:29.676Z,3692.00
2018-09-30T06:02:29.617Z,3708.00
2018-09-30T06:03:29.572Z,3764.00
2018-09-30T06:04:29.530Z,3804.00
2018-09-30T06:05:29.487Z,3812.00
2018-09-30T06:06:29.438Z,3848.00
2018-09-30T06:07:29.387Z,3960.00
2018-09-30T06:08:29.351Z,4068.00
2018-09-30T06:09:29.346Z,4464.00
2018-09-30T06:10:29.254Z,4992.00
2018-09-30T06:11:29.213Z,4928.00
2018-09-30T06:12:29.163Z,5768.00
2018-09-30T06:13:29.136Z,8488.00
2018-09-30T06:14:29.100Z,8832.00
2018-09-30T06:15:29.032Z,6256.00
2018-09-30T06:16:29.015Z,5960.00
2018-09-30T06:17:29.012Z,5136.00
2018-09-30T06:18:28.910Z,4452.00
2018-09-30T06:19:28.885Z,4432.00
2018-09-30T06:20:28.824Z,4460.00
2018-09-30T06:21:28.814Z,4492.00
2018-09-30T06:22:28.719Z,4504.00
2018-09-30T06:23:28.821Z,4548.00
2018-09-30T06:24:28.660Z,4584.00
2018-09-30T06:25:28.595Z,4624.00
2018-09-30T06:26:28.546Z,4652.00
2018-09-30T06:27:28.508Z,4840.00
2018-09-30T06:28:28.472Z,5196.00
2018-09-30T06:29:28.411Z,5100.00
2018-09-30T06:30:28.367Z,4792.00
2018-09-30T06:31:28.388Z,4844.00
2018-09-30T06:32:28.290Z,4928.00
2018-09-30T06:33:28.227Z,4920.00
2018-09-30T06:34:28.220Z,4888.00
2018-09-30T06:35:28.138Z,4972.00
2018-09-30T06:36:28.106Z,5036.00
2018-09-30T06:37:28.065Z,5048.00
2018-09-30T06:38:28.021Z,5140.00
2018-09-30T06:39:27.968Z,5204.00
2018-09-30T06:40:28.014Z,5256.00
2018-09-30T06:41:27.888Z,5300.00
2018-09-30T06:42:27.845Z,5372.00
2018-09-30T06:43:27.793Z,5412.00
2018-09-30T06:44:27.742Z,5468.00
2018-09-30T06:45:28.498Z,5556.00
2018-09-30T06:46:27.669Z,5612.00
2018-09-30T06:47:27.628Z,5652.00
2018-09-30T06:48:27.562Z,5708.00
2018-09-30T06:49:27.610Z,5772.00
2018-09-30T06:50:27.480Z,5876.00
2018-09-30T06:51:27.439Z,6112.00
2018-09-30T06:52:27.384Z,6456.00
2018-09-30T06:53:27.352Z,7980.00
2018-09-30T06:54:27.412Z,11216.00
2018-09-30T06:55:27.275Z,13712.00
2018-09-30T06:56:27.222Z,15512.00
2018-09-30T06:57:27.174Z,26080.00
2018-09-30T06:58:27.124Z,22336.00
2018-09-30T06:59:27.077Z,22080.00
2018-09-30T07:00:27.089Z,27008.00
2018-09-30T07:01:27.007Z,19200.00
2018-09-30T07:02:26.959Z,20000.00
2018-09-30T07:03:26.914Z,18528.00
2018-09-30T07:04:27.986Z,22944.00
2018-09-30T07:05:26.824Z,30976.00
2018-09-30T07:06:26.790Z,26688.00
2018-09-30T07:07:26.758Z,18304.00
2018-09-30T07:08:26.720Z,15332.00
2018-09-30T07:09:26.787Z,17184.00
2018-09-30T07:10:26.744Z,19424.00
2018-09-30T07:11:26.590Z,16612.00
2018-09-30T07:12:26.579Z,9200.00
2018-09-30T07:13:26.506Z,7920.00
2018-09-30T07:14:26.451Z,8192.00
2018-09-30T07:15:26.420Z,9504.00
2018-09-30T07:16:26.385Z,13108.00
2018-09-30T07:17:26.419Z,10228.00
2018-09-30T07:18:26.318Z,8676.00
2018-09-30T07:19:26.295Z,11876.00
2018-09-30T07:20:26.290Z,19904.00
2018-09-30T07:21:26.232Z,17632.00
2018-09-30T07:22:26.252Z,12180.00
2018-09-30T07:23:26.120Z,8172.00
2018-09-30T07:24:26.171Z,9188.00
2018-09-30T07:25:26.055Z,19776.00
2018-09-30T07:26:26.027Z,12184.00
2018-09-30T07:27:26.003Z,7420.00
2018-09-30T07:28:25.957Z,8252.00
2018-09-30T07:29:25.919Z,7428.00
2018-09-30T07:30:25.875Z,6708.00
2018-09-30T07:31:25.861Z,6984.00
2018-09-30T07:32:25.806Z,7004.00
2018-09-30T07:33:25.769Z,7592.00
2018-09-30T07:34:25.783Z,6908.00
2018-09-30T07:35:25.790Z,7524.00
2018-09-30T07:36:25.751Z,9896.00
2018-09-30T07:38:18.782Z,8480.00
2018-09-30T07:39:18.735Z,7896.00
2018-09-30T07:41:11.844Z,28320.00
2018-09-30T07:42:11.738Z,47808.00
2018-09-30T07:44:05.093Z,42784.00
2018-09-30T07:45:04.932Z,40032.00
2018-09-30T07:46:04.824Z,35232.00
2018-09-30T07:47:04.752Z,27264.00
2018-09-30T07:48:04.754Z,12156.00
2018-09-30T07:49:04.618Z,13576.00
2018-09-30T07:50:04.602Z,15688.00
2018-09-30T07:51:04.673Z,11884.00
2018-09-30T07:52:04.486Z,9136.00
2018-09-30T07:53:04.469Z,7700.00
2018-09-30T07:54:04.575Z,7224.00
2018-09-30T07:55:04.400Z,7584.00
2018-09-30T07:56:04.411Z,8036.00
2018-09-30T07:57:04.349Z,6876.00
2018-09-30T07:58:04.273Z,6964.00
2018-09-30T07:59:04.249Z,7480.00
2018-09-30T08:00:04.219Z,7460.00
2018-09-30T08:01:04.174Z,6912.00
2018-09-30T08:02:04.173Z,7004.00
2018-09-30T08:03:04.111Z,7452.00
2018-09-30T08:04:04.067Z,10816.00
2018-09-30T08:05:04.023Z,12200.00
2018-09-30T08:06:03.994Z,8880.00
2018-09-30T08:07:03.958Z,8740.00
2018-09-30T08:08:03.959Z,22880.00
2018-09-30T08:09:03.888Z,17572.00
2018-09-30T08:10:03.961Z,20576.00
2018-09-30T08:11:03.960Z,28928.00
2018-09-30T08:12:03.792Z,13668.00
2018-09-30T08:13:03.770Z,10436.00
2018-09-30T08:14:03.782Z,8200.00
2018-09-30T08:15:03.752Z,8416.00
2018-09-30T08:16:03.644Z,7772.00
2018-09-30T08:17:03.669Z,7444.00
2018-09-30T08:18:03.579Z,10096.00
2018-09-30T08:19:03.523Z,11288.00
2018-09-30T08:20:03.482Z,12828.00
2018-09-30T08:21:03.446Z,9440.00
2018-09-30T08:22:03.407Z,7932.00
2018-09-30T08:23:03.374Z,8700.00
2018-09-30T08:24:03.482Z,19136.00
2018-09-30T08:25:03.304Z,19152.00
2018-09-30T08:26:03.290Z,14536.00
2018-09-30T08:27:03.228Z,13840.00
2018-09-30T08:28:03.207Z,7704.00
2018-09-30T08:29:03.180Z,7472.00
2018-09-30T08:30:03.122Z,8524.00
2018-09-30T08:31:03.111Z,8304.00
2018-09-30T08:32:03.078Z,14948.00
2018-09-30T08:33:03.059Z,24640.00
2018-09-30T08:34:03.005Z,24736.00
2018-09-30T08:35:02.972Z,24352.00
2018-09-30T08:36:02.950Z,30336.00
2018-09-30T08:37:02.880Z,28608.00
2018-09-30T08:38:02.879Z,33888.00
2018-09-30T08:39:02.825Z,49344.00
2018-09-30T08:40:02.815Z,33504.00
2018-09-30T08:41:02.762Z,38336.00
2018-09-30T08:42:02.752Z,58624.00
2018-09-30T08:43:02.733Z,45344.00
2018-09-30T08:44:02.688Z,22400.00
2018-09-30T08:45:02.636Z,28928.00
2018-09-30T08:46:02.590Z,37568.00
2018-09-30T08:47:02.552Z,27680.00
2018-09-30T08:48:02.553Z,18112.00
2018-09-30T08:49:02.496Z,30048.00
2018-09-30T08:50:02.484Z,29664.00
2018-09-30T08:51:02.437Z,49248.00
2018-09-30T08:52:02.419Z,60544.00
2018-09-30T08:53:02.367Z,68960.00
2018-09-30T08:54:02.332Z,63776.00
2018-09-30T08:55:02.328Z,67392.00
2018-09-30T08:56:02.336Z,49248.00
2018-09-30T08:57:02.254Z,36704.00
2018-09-30T08:58:02.220Z,54176.00
2018-09-30T08:59:02.180Z,66592.00
2018-09-30T09:00:02.210Z,69152.00
2018-09-30T09:01:02.135Z,62880.00
2018-09-30T09:02:02.100Z,57376.00
2018-09-30T09:03:02.122Z,82336.00
2018-09-30T09:04:02.031Z,83232.00
2018-09-30T09:05:02.002Z,82048.00
2018-09-30T09:06:02.006Z,87968.00
2018-09-30T09:07:01.946Z,82752.00
2018-09-30T09:08:01.937Z,82880.00
2018-09-30T09:09:01.902Z,74048.00
2018-09-30T09:10:02.011Z,69792.00
2018-09-30T09:11:01.823Z,76192.00
2018-09-30T09:12:01.825Z,73120.00
2018-09-30T09:13:01.787Z,78240.00
2018-09-30T09:14:01.849Z,72704.00
2018-09-30T09:15:01.749Z,74240.00
2018-09-30T09:16:01.707Z,66688.00
2018-09-30T09:17:01.679Z,66848.00
2018-09-30T09:18:01.658Z,71232.00
2018-09-30T09:19:01.639Z,74496.00
2018-09-30T09:20:01.585Z,68288.00
2018-09-30T09:21:01.580Z,73888.00
2018-09-30T09:22:01.554Z,79648.00
2018-09-30T09:23:01.536Z,73600.00
2018-09-30T09:24:01.559Z,79136.00
2018-09-30T09:25:01.463Z,85056.00
2018-09-30T09:26:01.457Z,88992.00
2018-09-30T09:27:01.421Z,89120.00
2018-09-30T09:28:01.442Z,72544.00
2018-09-30T09:29:01.380Z,74656.00
2018-09-30T09:30:01.365Z,79392.00
2018-09-30T09:31:01.335Z,77792.00
2018-09-30T09:32:01.319Z,77408.00
2018-09-30T09:33:01.339Z,78688.00
2018-09-30T09:34:01.259Z,81920.00
2018-09-30T09:35:01.312Z,81216.00
2018-09-30T09:36:01.215Z,83360.00
2018-09-30T09:37:01.196Z,78880.00
2018-09-30T09:38:01.197Z,74080.00
2018-09-30T09:39:01.246Z,79520.00
2018-09-30T09:40:01.120Z,82112.00
2018-09-30T09:41:01.113Z,81600.00
2018-09-30T09:42:01.078Z,74016.00
2018-09-30T09:43:01.108Z,72704.00
2018-09-30T09:44:01.037Z,81280.00
2018-09-30T09:45:01.004Z,77696.00
2018-09-30T09:46:00.991Z,85568.00
2018-09-30T09:47:00.972Z,80928.00
2018-09-30T09:48:00.935Z,79840.00
2018-09-30T09:49:00.924Z,82336.00
2018-09-30T09:50:00.905Z,78624.00
2018-09-30T09:51:00.875Z,77792.00
2018-09-30T09:52:00.884Z,70592.00
2018-09-30T09:53:00.834Z,74048.00
2018-09-30T09:54:00.842Z,83200.00
2018-09-30T09:55:00.833Z,83968.00
2018-09-30T09:56:00.773Z,89248.00
2018-09-30T09:57:00.755Z,87744.00
2018-09-30T09:58:00.726Z,78560.00
2018-09-30T09:59:00.791Z,81952.00
2018-09-30T10:00:00.696Z,76160.00
2018-09-30T10:01:00.667Z,75776.00
2018-09-30T10:02:00.631Z,79968.00
2018-09-30T10:03:00.616Z,79584.00
2018-09-30T10:04:00.752Z,78848.00
2018-09-30T10:05:00.649Z,69120.00
2018-09-30T10:06:00.558Z,79456.00
2018-09-30T10:07:00.536Z,85824.00
2018-09-30T10:08:00.508Z,88000.00
2018-09-30T10:09:00.485Z,88320.00
2018-09-30T10:10:00.517Z,72416.00
2018-09-30T10:11:00.448Z,75456.00
2018-09-30T10:12:00.429Z,70464.00
2018-09-30T10:13:00.404Z,74368.00
2018-09-30T10:14:00.395Z,82784.00
2018-09-30T10:15:00.381Z,89888.00
2018-09-30T10:16:00.352Z,91072.00
2018-09-30T10:17:00.333Z,93504.00
2018-09-30T10:18:00.317Z,88608.00
2018-09-30T10:19:00.307Z,97760.00
2018-09-30T10:20:00.253Z,89856.00
2018-09-30T10:21:00.235Z,91008.00
2018-09-30T10:22:00.228Z,92128.00
2018-09-30T10:23:00.213Z,87712.00
2018-09-30T10:24:00.217Z,92992.00
2018-09-30T10:25:00.148Z,84832.00
2018-09-30T10:26:00.142Z,91744.00
2018-09-30T10:27:00.122Z,90976.00
2018-09-30T10:28:00.123Z,91008.00
2018-09-30T10:29:00.058Z,92320.00
2018-09-30T10:30:00.038Z,83232.00
2018-09-30T10:31:00.035Z,90368.00
2018-09-30T10:32:00.015Z,83040.00
2018-09-30T10:32:59.974Z,82848.00
2018-09-30T10:33:59.950Z,86208.00
2018-09-30T10:34:59.950Z,89472.00
2018-09-30T10:35:59.938Z,98976.00
2018-09-30T10:36:59.894Z,91744.00
2018-09-30T10:38:01.962Z,81216.00
2018-09-30T10:39:00.110Z,76352.00
2018-09-30T10:39:59.838Z,92256.00
2018-09-30T10:40:59.808Z,100640.00
2018-09-30T10:41:59.801Z,101120.00
2018-09-30T10:42:59.793Z,90272.00
2018-09-30T10:43:59.764Z,83040.00
2018-09-30T10:44:59.745Z,90080.00
2018-09-30T10:45:59.720Z,87456.00
2018-09-30T10:46:59.700Z,77280.00
2018-09-30T10:47:59.700Z,75680.00
2018-09-30T10:48:59.649Z,76064.00
2018-09-30T10:49:59.626Z,83488.00
2018-09-30T10:50:59.625Z,89312.00
2018-09-30T10:51:59.579Z,95712.00
2018-09-30T10:52:59.568Z,93152.00
2018-09-30T10:53:59.553Z,95296.00
2018-09-30T10:54:59.524Z,87872.00
2018-09-30T10:55:59.524Z,78144.00
2018-09-30T10:56:59.556Z,75776.00
2018-09-30T10:57:59.444Z,82720.00
2018-09-30T10:58:59.454Z,78688.00
2018-09-30T10:59:59.429Z,80928.00
2018-09-30T11:00:59.391Z,83008.00
2018-09-30T11:01:59.356Z,86464.00
2018-09-30T11:02:59.333Z,86048.00
2018-09-30T11:03:59.326Z,80480.00
2018-09-30T11:04:59.325Z,87296.00
2018-09-30T11:05:59.279Z,85376.00
2018-09-30T11:06:59.251Z,84800.00
2018-09-30T11:07:59.232Z,86464.00
2018-09-30T11:08:59.229Z,85824.00
2018-09-30T11:09:59.238Z,84832.00
2018-09-30T11:10:59.197Z,89952.00
2018-09-30T11:11:59.178Z,84192.00
2018-09-30T11:12:59.124Z,86496.00
2018-09-30T11:13:59.111Z,94752.00
2018-09-30T11:14:59.081Z,94912.00
2018-09-30T11:15:59.082Z,99936.00
2018-09-30T11:16:59.051Z,97248.00
2018-09-30T11:17:59.028Z,93568.00
2018-09-30T11:18:58.998Z,80608.00
2018-09-30T11:19:58.974Z,83040.00
2018-09-30T11:20:58.931Z,82944.00
2018-09-30T11:21:58.937Z,95456.00
2018-09-30T11:22:58.906Z,100480.00
2018-09-30T11:23:58.877Z,102944.00
2018-09-30T11:24:58.900Z,100832.00
2018-09-30T11:25:58.844Z,94112.00
2018-09-30T11:26:58.823Z,91584.00
2018-09-30T11:27:58.802Z,86336.00
2018-09-30T11:28:58.799Z,80448.00
2018-09-30T11:29:58.800Z,85536.00
2018-09-30T11:30:58.749Z,88544.00
2018-09-30T11:31:58.844Z,91712.00
2018-09-30T11:32:58.697Z,93952.00
2018-09-30T11:33:58.738Z,94560.00
2018-09-30T11:34:58.635Z,100608.00
2018-09-30T11:35:58.635Z,105248.00
2018-09-30T11:36:58.606Z,100992.00
2018-09-30T11:37:58.572Z,97504.00
2018-09-30T11:38:58.556Z,84896.00
2018-09-30T11:39:58.554Z,84000.00
2018-09-30T11:40:58.520Z,88384.00
2018-09-30T11:41:58.479Z,91392.00
2018-09-30T11:42:58.460Z,100864.00
2018-09-30T11:43:58.425Z,102848.00
2018-09-30T11:44:58.412Z,96864.00
2018-09-30T11:45:58.468Z,94144.00
2018-09-30T11:46:58.367Z,99232.00
2018-09-30T11:47:58.350Z,82752.00
2018-09-30T11:48:58.332Z,84864.00
2018-09-30T11:49:58.361Z,76256.00
2018-09-30T11:50:58.317Z,50880.00
2018-09-30T11:51:58.252Z,32672.00
2018-09-30T11:52:58.277Z,34912.00
2018-09-30T11:53:58.269Z,37728.00
2018-09-30T11:54:58.224Z,35168.00
2018-09-30T11:55:58.189Z,40352.00
2018-09-30T11:56:58.141Z,42944.00
2018-09-30T11:57:58.128Z,36288.00
2018-09-30T11:58:59.094Z,37440.00
2018-09-30T11:59:58.111Z,38080.00
2018-09-30T12:00:58.111Z,37440.00
2018-09-30T12:01:58.032Z,35072.00
2018-09-30T12:02:58.098Z,35360.00
2018-09-30T12:03:57.990Z,35136.00
2018-09-30T12:04:57.976Z,33952.00
2018-09-30T12:05:57.997Z,33888.00
2018-09-30T12:06:57.961Z,36768.00
2018-09-30T12:07:57.897Z,38048.00
2018-09-30T12:08:57.878Z,39744.00
2018-09-30T12:09:57.863Z,38656.00
2018-09-30T12:10:57.829Z,40992.00
2018-09-30T12:11:57.825Z,41184.00
2018-09-30T12:12:57.784Z,43904.00
2018-09-30T12:13:57.807Z,39744.00
2018-09-30T12:14:57.762Z,38016.00
2018-09-30T12:15:57.748Z,43904.00
2018-09-30T12:16:57.731Z,44192.00
2018-09-30T12:17:57.665Z,42752.00
2018-09-30T12:18:57.656Z,49440.00
2018-09-30T12:19:57.660Z,45696.00
2018-09-30T12:20:57.684Z,44192.00
2018-09-30T12:21:57.585Z,47392.00
2018-09-30T12:22:57.569Z,45216.00
2018-09-30T12:23:57.532Z,46240.00
2018-09-30T12:24:57.520Z,43424.00
2018-09-30T12:25:57.528Z,42816.00
2018-09-30T12:26:57.479Z,42496.00
2018-09-30T12:27:57.440Z,37856.00
2018-09-30T12:28:57.428Z,42336.00